sensor_id;sensor_type;location;lat;lon;timestamp;P1;durP1;ratioP1;P2;durP2;ratioP2
24547;SDS011;12713;51.624;4.924;2022-07-06T00:01:36;5.65;;;3.33;;
24547;SDS011;12713;51.624;4.924;2022-07-06T00:04:02;6.55;;;3.42;;
24547;SDS011;12713;51.624;4.924;2022-07-06T00:06:28;7.32;;;3.30;;
24547;SDS011;12713;51.624;4.924;2022-07-06T00:08:54;5.63;;;3.10;;
24547;SDS011;12713;51.624;4.924;2022-07-06T00:11:21;4.55;;;3.30;;
24547;SDS011;12713;51.624;4.924;2022-07-06T00:13:47;7.57;;;3.35;;
24547;SDS011;12713;51.624;4.924;2022-07-06T00:16:16;5.72;;;3.10;;
24547;SDS011;12713;51.624;4.924;2022-07-06T00:18:42;5.35;;;3.00;;
24547;SDS011;12713;51.624;4.924;2022-07-06T00:21:08;9.95;;;3.67;;
24547;SDS011;12713;51.624;4.924;2022-07-06T00:23:41;5.97;;;3.42;;
24547;SDS011;12713;51.624;4.924;2022-07-06T00:26:10;6.68;;;3.83;;
24547;SDS011;12713;51.624;4.924;2022-07-06T00:28:51;6.15;;;3.58;;
24547;SDS011;12713;51.624;4.924;2022-07-06T00:31:17;8.13;;;3.72;;
24547;SDS011;12713;51.624;4.924;2022-07-06T00:36:55;7.65;;;4.15;;
24547;SDS011;12713;51.624;4.924;2022-07-06T00:39:21;7.43;;;3.83;;
24547;SDS011;12713;51.624;4.924;2022-07-06T00:41:48;6.38;;;3.20;;
24547;SDS011;12713;51.624;4.924;2022-07-06T00:44:14;9.55;;;3.42;;
24547;SDS011;12713;51.624;4.924;2022-07-06T00:46:40;6.30;;;3.53;;
24547;SDS011;12713;51.624;4.924;2022-07-06T00:49:07;6.40;;;3.47;;
24547;SDS011;12713;51.624;4.924;2022-07-06T00:51:55;6.50;;;3.35;;
24547;SDS011;12713;51.624;4.924;2022-07-06T00:54:23;5.93;;;3.28;;
24547;SDS011;12713;51.624;4.924;2022-07-06T00:56:55;2.90;;;2.60;;
24547;SDS011;12713;51.624;4.924;2022-07-06T00:59:22;4.50;;;3.05;;
24547;SDS011;12713;51.624;4.924;2022-07-06T01:05:06;3.47;;;2.78;;
24547;SDS011;12713;51.624;4.924;2022-07-06T01:10:26;5.95;;;3.53;;
24547;SDS011;12713;51.624;4.924;2022-07-06T01:12:53;3.75;;;2.58;;
24547;SDS011;12713;51.624;4.924;2022-07-06T01:15:21;6.35;;;3.30;;
24547;SDS011;12713;51.624;4.924;2022-07-06T01:17:47;5.15;;;3.03;;
24547;SDS011;12713;51.624;4.924;2022-07-06T01:20:17;5.95;;;3.20;;
24547;SDS011;12713;51.624;4.924;2022-07-06T01:22:44;3.78;;;2.70;;
24547;SDS011;12713;51.624;4.924;2022-07-06T01:25:11;5.22;;;2.65;;
24547;SDS011;12713;51.624;4.924;2022-07-06T01:27:37;5.93;;;3.05;;
24547;SDS011;12713;51.624;4.924;2022-07-06T01:30:08;4.97;;;2.85;;
24547;SDS011;12713;51.624;4.924;2022-07-06T01:32:35;5.15;;;3.40;;
24547;SDS011;12713;51.624;4.924;2022-07-06T01:35:01;5.22;;;3.45;;
24547;SDS011;12713;51.624;4.924;2022-07-06T01:37:28;5.60;;;3.35;;
24547;SDS011;12713;51.624;4.924;2022-07-06T01:39:57;5.57;;;3.13;;
24547;SDS011;12713;51.624;4.924;2022-07-06T01:42:23;6.10;;;3.08;;
24547;SDS011;12713;51.624;4.924;2022-07-06T01:44:49;6.22;;;3.40;;
24547;SDS011;12713;51.624;4.924;2022-07-06T01:47:15;4.90;;;2.78;;
24547;SDS011;12713;51.624;4.924;2022-07-06T01:49:41;4.78;;;3.05;;
24547;SDS011;12713;51.624;4.924;2022-07-06T01:52:07;4.75;;;3.42;;
24547;SDS011;12713;51.624;4.924;2022-07-06T01:54:33;6.40;;;3.05;;
24547;SDS011;12713;51.624;4.924;2022-07-06T01:56:59;6.82;;;3.35;;
24547;SDS011;12713;51.624;4.924;2022-07-06T01:59:25;5.10;;;3.03;;
24547;SDS011;12713;51.624;4.924;2022-07-06T02:01:51;6.70;;;3.45;;
24547;SDS011;12713;51.624;4.924;2022-07-06T02:04:17;6.35;;;3.85;;
24547;SDS011;12713;51.624;4.924;2022-07-06T02:06:43;5.63;;;3.63;;
24547;SDS011;12713;51.624;4.924;2022-07-06T02:09:09;7.13;;;3.20;;
24547;SDS011;12713;51.624;4.924;2022-07-06T02:11:35;7.25;;;4.07;;
24547;SDS011;12713;51.624;4.924;2022-07-06T02:14:01;6.15;;;3.28;;
24547;SDS011;12713;51.624;4.924;2022-07-06T02:16:27;6.82;;;3.10;;
24547;SDS011;12713;51.624;4.924;2022-07-06T02:18:53;5.40;;;3.28;;
24547;SDS011;12713;51.624;4.924;2022-07-06T02:21:19;5.55;;;3.35;;
24547;SDS011;12713;51.624;4.924;2022-07-06T02:23:45;7.97;;;4.10;;
24547;SDS011;12713;51.624;4.924;2022-07-06T02:26:11;4.78;;;3.90;;
24547;SDS011;12713;51.624;4.924;2022-07-06T02:28:37;8.60;;;3.78;;
24547;SDS011;12713;51.624;4.924;2022-07-06T02:31:03;6.82;;;3.70;;
24547;SDS011;12713;51.624;4.924;2022-07-06T02:33:30;5.43;;;3.75;;
24547;SDS011;12713;51.624;4.924;2022-07-06T02:35:56;7.50;;;4.25;;
24547;SDS011;12713;51.624;4.924;2022-07-06T02:38:22;6.22;;;3.85;;
24547;SDS011;12713;51.624;4.924;2022-07-06T02:40:48;8.40;;;3.70;;
24547;SDS011;12713;51.624;4.924;2022-07-06T02:43:14;6.25;;;3.75;;
24547;SDS011;12713;51.624;4.924;2022-07-06T02:45:40;5.85;;;3.65;;
24547;SDS011;12713;51.624;4.924;2022-07-06T02:48:06;4.72;;;3.92;;
24547;SDS011;12713;51.624;4.924;2022-07-06T02:50:32;7.50;;;3.95;;
24547;SDS011;12713;51.624;4.924;2022-07-06T02:52:58;7.20;;;3.67;;
24547;SDS011;12713;51.624;4.924;2022-07-06T02:55:25;5.22;;;3.35;;
24547;SDS011;12713;51.624;4.924;2022-07-06T02:57:51;6.50;;;4.43;;
24547;SDS011;12713;51.624;4.924;2022-07-06T03:00:17;4.20;;;3.78;;
24547;SDS011;12713;51.624;4.924;2022-07-06T03:02:43;5.75;;;3.55;;
24547;SDS011;12713;51.624;4.924;2022-07-06T03:05:10;6.90;;;3.70;;
24547;SDS011;12713;51.624;4.924;2022-07-06T03:07:36;5.15;;;3.83;;
24547;SDS011;12713;51.624;4.924;2022-07-06T03:10:02;5.45;;;3.83;;
24547;SDS011;12713;51.624;4.924;2022-07-06T03:12:28;4.85;;;3.63;;
24547;SDS011;12713;51.624;4.924;2022-07-06T03:14:54;7.85;;;4.03;;
24547;SDS011;12713;51.624;4.924;2022-07-06T03:17:20;8.05;;;3.60;;
24547;SDS011;12713;51.624;4.924;2022-07-06T03:19:47;5.32;;;3.35;;
24547;SDS011;12713;51.624;4.924;2022-07-06T03:22:13;5.70;;;3.50;;
24547;SDS011;12713;51.624;4.924;2022-07-06T03:24:39;6.03;;;3.80;;
24547;SDS011;12713;51.624;4.924;2022-07-06T03:27:05;5.90;;;3.50;;
24547;SDS011;12713;51.624;4.924;2022-07-06T03:29:31;4.95;;;3.53;;
24547;SDS011;12713;51.624;4.924;2022-07-06T03:31:57;5.03;;;3.63;;
24547;SDS011;12713;51.624;4.924;2022-07-06T03:34:23;5.30;;;3.70;;
24547;SDS011;12713;51.624;4.924;2022-07-06T03:36:49;4.88;;;3.63;;
24547;SDS011;12713;51.624;4.924;2022-07-06T03:39:16;6.15;;;3.67;;
24547;SDS011;12713;51.624;4.924;2022-07-06T03:41:42;6.45;;;3.45;;
24547;SDS011;12713;51.624;4.924;2022-07-06T03:44:08;4.63;;;3.58;;
24547;SDS011;12713;51.624;4.924;2022-07-06T03:46:34;6.70;;;3.55;;
24547;SDS011;12713;51.624;4.924;2022-07-06T03:49:00;8.35;;;3.83;;
24547;SDS011;12713;51.624;4.924;2022-07-06T03:51:26;3.95;;;3.20;;
24547;SDS011;12713;51.624;4.924;2022-07-06T03:53:52;5.60;;;3.90;;
24547;SDS011;12713;51.624;4.924;2022-07-06T03:56:18;5.30;;;3.38;;
24547;SDS011;12713;51.624;4.924;2022-07-06T03:58:53;6.45;;;3.60;;
24547;SDS011;12713;51.624;4.924;2022-07-06T04:01:19;7.35;;;3.50;;
24547;SDS011;12713;51.624;4.924;2022-07-06T04:03:45;7.35;;;3.60;;
24547;SDS011;12713;51.624;4.924;2022-07-06T04:06:11;6.88;;;4.20;;
24547;SDS011;12713;51.624;4.924;2022-07-06T04:08:38;5.47;;;4.07;;
24547;SDS011;12713;51.624;4.924;2022-07-06T04:11:04;5.85;;;3.47;;
24547;SDS011;12713;51.624;4.924;2022-07-06T04:13:30;5.72;;;3.35;;
24547;SDS011;12713;51.624;4.924;2022-07-06T04:15:56;6.40;;;3.95;;
24547;SDS011;12713;51.624;4.924;2022-07-06T04:18:22;5.07;;;3.90;;
24547;SDS011;12713;51.624;4.924;2022-07-06T04:20:48;10.07;;;3.95;;
24547;SDS011;12713;51.624;4.924;2022-07-06T04:23:14;6.30;;;3.95;;
24547;SDS011;12713;51.624;4.924;2022-07-06T04:25:40;6.00;;;3.97;;
24547;SDS011;12713;51.624;4.924;2022-07-06T04:28:06;6.00;;;3.70;;
24547;SDS011;12713;51.624;4.924;2022-07-06T04:30:32;7.32;;;3.42;;
24547;SDS011;12713;51.624;4.924;2022-07-06T04:32:58;6.70;;;3.50;;
24547;SDS011;12713;51.624;4.924;2022-07-06T04:35:24;4.65;;;3.42;;
24547;SDS011;12713;51.624;4.924;2022-07-06T04:37:50;7.28;;;3.08;;
24547;SDS011;12713;51.624;4.924;2022-07-06T04:40:17;4.25;;;2.70;;
24547;SDS011;12713;51.624;4.924;2022-07-06T04:42:43;5.78;;;2.90;;
24547;SDS011;12713;51.624;4.924;2022-07-06T04:45:09;4.65;;;3.20;;
24547;SDS011;12713;51.624;4.924;2022-07-06T04:47:35;4.60;;;2.70;;
24547;SDS011;12713;51.624;4.924;2022-07-06T04:50:02;4.95;;;2.92;;
24547;SDS011;12713;51.624;4.924;2022-07-06T04:52:29;5.05;;;2.80;;
24547;SDS011;12713;51.624;4.924;2022-07-06T04:54:55;5.25;;;2.90;;
24547;SDS011;12713;51.624;4.924;2022-07-06T04:57:21;6.85;;;2.95;;
24547;SDS011;12713;51.624;4.924;2022-07-06T04:59:47;5.07;;;2.30;;
24547;SDS011;12713;51.624;4.924;2022-07-06T05:02:14;3.67;;;2.50;;
24547;SDS011;12713;51.624;4.924;2022-07-06T05:04:40;5.47;;;2.28;;
24547;SDS011;12713;51.624;4.924;2022-07-06T05:07:06;3.40;;;2.72;;
24547;SDS011;12713;51.624;4.924;2022-07-06T05:09:32;3.83;;;2.45;;
24547;SDS011;12713;51.624;4.924;2022-07-06T05:11:58;6.70;;;2.30;;
24547;SDS011;12713;51.624;4.924;2022-07-06T05:14:24;4.13;;;2.30;;
24547;SDS011;12713;51.624;4.924;2022-07-06T05:16:50;3.05;;;1.90;;
24547;SDS011;12713;51.624;4.924;2022-07-06T05:19:16;3.85;;;2.30;;
24547;SDS011;12713;51.624;4.924;2022-07-06T05:21:42;5.53;;;2.08;;
24547;SDS011;12713;51.624;4.924;2022-07-06T05:24:08;4.05;;;2.15;;
24547;SDS011;12713;51.624;4.924;2022-07-06T05:26:34;5.95;;;3.03;;
24547;SDS011;12713;51.624;4.924;2022-07-06T05:29:00;7.05;;;2.20;;
24547;SDS011;12713;51.624;4.924;2022-07-06T05:31:29;3.20;;;2.38;;
24547;SDS011;12713;51.624;4.924;2022-07-06T05:33:55;8.68;;;3.88;;
24547;SDS011;12713;51.624;4.924;2022-07-06T05:36:21;8.65;;;3.30;;
24547;SDS011;12713;51.624;4.924;2022-07-06T05:38:47;5.43;;;2.80;;
24547;SDS011;12713;51.624;4.924;2022-07-06T05:41:14;7.40;;;3.10;;
24547;SDS011;12713;51.624;4.924;2022-07-06T05:43:40;5.97;;;3.33;;
24547;SDS011;12713;51.624;4.924;2022-07-06T05:46:06;5.57;;;2.95;;
24547;SDS011;12713;51.624;4.924;2022-07-06T05:48:32;5.30;;;2.42;;
24547;SDS011;12713;51.624;4.924;2022-07-06T05:51:16;4.90;;;3.20;;
24547;SDS011;12713;51.624;4.924;2022-07-06T05:53:42;6.03;;;2.95;;
24547;SDS011;12713;51.624;4.924;2022-07-06T05:56:08;4.30;;;2.35;;
24547;SDS011;12713;51.624;4.924;2022-07-06T05:58:34;5.10;;;2.22;;
24547;SDS011;12713;51.624;4.924;2022-07-06T06:01:00;6.30;;;1.80;;
24547;SDS011;12713;51.624;4.924;2022-07-06T06:03:26;7.97;;;2.10;;
24547;SDS011;12713;51.624;4.924;2022-07-06T06:05:52;11.40;;;1.58;;
24547;SDS011;12713;51.624;4.924;2022-07-06T06:08:18;5.25;;;1.98;;
24547;SDS011;12713;51.624;4.924;2022-07-06T06:10:45;12.60;;;2.30;;
24547;SDS011;12713;51.624;4.924;2022-07-06T06:13:11;3.55;;;1.58;;
24547;SDS011;12713;51.624;4.924;2022-07-06T06:15:37;4.30;;;1.35;;
24547;SDS011;12713;51.624;4.924;2022-07-06T06:18:03;3.03;;;1.35;;
24547;SDS011;12713;51.624;4.924;2022-07-06T06:20:29;2.92;;;1.50;;
24547;SDS011;12713;51.624;4.924;2022-07-06T06:22:56;5.25;;;1.30;;
24547;SDS011;12713;51.624;4.924;2022-07-06T06:25:35;6.28;;;1.73;;
24547;SDS011;12713;51.624;4.924;2022-07-06T06:28:08;4.32;;;1.52;;
24547;SDS011;12713;51.624;4.924;2022-07-06T06:33:07;7.88;;;1.38;;
24547;SDS011;12713;51.624;4.924;2022-07-06T06:35:33;3.08;;;1.10;;
24547;SDS011;12713;51.624;4.924;2022-07-06T06:37:59;7.18;;;1.58;;
24547;SDS011;12713;51.624;4.924;2022-07-06T06:40:25;3.90;;;1.25;;
24547;SDS011;12713;51.624;4.924;2022-07-06T06:42:51;6.70;;;1.60;;
24547;SDS011;12713;51.624;4.924;2022-07-06T06:45:17;6.30;;;1.10;;
24547;SDS011;12713;51.624;4.924;2022-07-06T06:47:44;3.30;;;1.10;;
24547;SDS011;12713;51.624;4.924;2022-07-06T06:50:10;4.65;;;1.70;;
24547;SDS011;12713;51.624;4.924;2022-07-06T06:52:36;3.53;;;1.27;;
24547;SDS011;12713;51.624;4.924;2022-07-06T06:55:02;2.42;;;1.10;;
24547;SDS011;12713;51.624;4.924;2022-07-06T06:57:28;4.20;;;1.20;;
24547;SDS011;12713;51.624;4.924;2022-07-06T06:59:54;4.07;;;1.33;;
24547;SDS011;12713;51.624;4.924;2022-07-06T07:02:20;6.07;;;1.38;;
24547;SDS011;12713;51.624;4.924;2022-07-06T07:04:46;2.53;;;1.25;;
24547;SDS011;12713;51.624;4.924;2022-07-06T07:07:12;3.58;;;1.10;;
24547;SDS011;12713;51.624;4.924;2022-07-06T07:09:38;5.95;;;0.80;;
24547;SDS011;12713;51.624;4.924;2022-07-06T07:12:04;1.75;;;0.93;;
24547;SDS011;12713;51.624;4.924;2022-07-06T07:14:31;2.28;;;1.00;;
24547;SDS011;12713;51.624;4.924;2022-07-06T07:16:57;5.22;;;0.98;;
24547;SDS011;12713;51.624;4.924;2022-07-06T07:19:23;3.25;;;1.00;;
24547;SDS011;12713;51.624;4.924;2022-07-06T07:21:49;2.88;;;0.95;;
24547;SDS011;12713;51.624;4.924;2022-07-06T07:24:16;6.57;;;1.40;;
24547;SDS011;12713;51.624;4.924;2022-07-06T07:26:42;7.97;;;1.83;;
24547;SDS011;12713;51.624;4.924;2022-07-06T07:29:08;7.68;;;1.30;;
24547;SDS011;12713;51.624;4.924;2022-07-06T07:31:34;3.00;;;1.10;;
24547;SDS011;12713;51.624;4.924;2022-07-06T07:34:00;3.08;;;1.35;;
24547;SDS011;12713;51.624;4.924;2022-07-06T07:36:26;3.85;;;1.20;;
24547;SDS011;12713;51.624;4.924;2022-07-06T07:38:52;3.05;;;1.00;;
24547;SDS011;12713;51.624;4.924;2022-07-06T07:41:19;4.20;;;0.80;;
24547;SDS011;12713;51.624;4.924;2022-07-06T07:43:45;1.08;;;0.80;;
24547;SDS011;12713;51.624;4.924;2022-07-06T07:46:11;1.58;;;0.63;;
24547;SDS011;12713;51.624;4.924;2022-07-06T07:48:37;3.30;;;0.90;;
24547;SDS011;12713;51.624;4.924;2022-07-06T07:51:03;2.88;;;1.00;;
24547;SDS011;12713;51.624;4.924;2022-07-06T07:53:29;1.63;;;0.70;;
24547;SDS011;12713;51.624;4.924;2022-07-06T07:55:55;1.75;;;0.98;;
24547;SDS011;12713;51.624;4.924;2022-07-06T07:58:21;1.00;;;0.90;;
24547;SDS011;12713;51.624;4.924;2022-07-06T08:00:47;2.70;;;0.70;;
24547;SDS011;12713;51.624;4.924;2022-07-06T08:03:13;4.22;;;0.93;;
24547;SDS011;12713;51.624;4.924;2022-07-06T08:05:39;2.17;;;1.10;;
24547;SDS011;12713;51.624;4.924;2022-07-06T08:08:05;4.90;;;1.00;;
24547;SDS011;12713;51.624;4.924;2022-07-06T08:10:31;3.40;;;0.70;;
24547;SDS011;12713;51.624;4.924;2022-07-06T08:12:57;3.05;;;0.80;;
24547;SDS011;12713;51.624;4.924;2022-07-06T08:15:23;4.20;;;0.77;;
24547;SDS011;12713;51.624;4.924;2022-07-06T08:17:50;4.03;;;0.90;;
24547;SDS011;12713;51.624;4.924;2022-07-06T08:20:16;3.85;;;0.85;;
24547;SDS011;12713;51.624;4.924;2022-07-06T08:22:42;7.35;;;1.15;;
24547;SDS011;12713;51.624;4.924;2022-07-06T08:25:08;0.88;;;0.60;;
24547;SDS011;12713;51.624;4.924;2022-07-06T08:27:34;1.88;;;0.80;;
24547;SDS011;12713;51.624;4.924;2022-07-06T08:30:01;2.00;;;0.85;;
24547;SDS011;12713;51.624;4.924;2022-07-06T08:32:27;2.97;;;0.63;;
24547;SDS011;12713;51.624;4.924;2022-07-06T08:34:53;3.08;;;0.80;;
24547;SDS011;12713;51.624;4.924;2022-07-06T08:37:19;4.43;;;1.10;;
24547;SDS011;12713;51.624;4.924;2022-07-06T08:39:46;3.00;;;0.80;;
24547;SDS011;12713;51.624;4.924;2022-07-06T08:42:12;6.78;;;0.80;;
24547;SDS011;12713;51.624;4.924;2022-07-06T08:44:38;1.50;;;0.60;;
24547;SDS011;12713;51.624;4.924;2022-07-06T08:47:05;4.70;;;0.82;;
24547;SDS011;12713;51.624;4.924;2022-07-06T08:49:32;3.53;;;0.88;;
24547;SDS011;12713;51.624;4.924;2022-07-06T08:51:59;4.10;;;1.00;;
24547;SDS011;12713;51.624;4.924;2022-07-06T08:54:25;3.85;;;0.77;;
24547;SDS011;12713;51.624;4.924;2022-07-06T08:56:52;2.70;;;0.57;;
24547;SDS011;12713;51.624;4.924;2022-07-06T08:59:18;2.08;;;0.60;;
24547;SDS011;12713;51.624;4.924;2022-07-06T09:01:44;1.67;;;0.60;;
24547;SDS011;12713;51.624;4.924;2022-07-06T09:04:12;2.00;;;1.00;;
24547;SDS011;12713;51.624;4.924;2022-07-06T09:06:38;7.30;;;0.80;;
24547;SDS011;12713;51.624;4.924;2022-07-06T09:09:06;3.60;;;0.70;;
24547;SDS011;12713;51.624;4.924;2022-07-06T09:11:33;2.78;;;0.80;;
24547;SDS011;12713;51.624;4.924;2022-07-06T09:14:00;1.23;;;0.60;;
24547;SDS011;12713;51.624;4.924;2022-07-06T09:16:27;2.53;;;0.60;;
24547;SDS011;12713;51.624;4.924;2022-07-06T09:18:53;2.20;;;0.55;;
24547;SDS011;12713;51.624;4.924;2022-07-06T09:21:23;2.63;;;0.57;;
24547;SDS011;12713;51.624;4.924;2022-07-06T09:23:56;2.05;;;0.63;;
24547;SDS011;12713;51.624;4.924;2022-07-06T09:26:23;3.80;;;0.73;;
24547;SDS011;12713;51.624;4.924;2022-07-06T09:28:49;2.55;;;0.88;;
24547;SDS011;12713;51.624;4.924;2022-07-06T09:31:15;1.77;;;0.70;;
24547;SDS011;12713;51.624;4.924;2022-07-06T09:33:54;3.33;;;0.60;;
24547;SDS011;12713;51.624;4.924;2022-07-06T09:36:36;1.67;;;0.70;;
24547;SDS011;12713;51.624;4.924;2022-07-06T09:39:16;2.03;;;0.80;;
24547;SDS011;12713;51.624;4.924;2022-07-06T09:41:42;3.42;;;0.80;;
24547;SDS011;12713;51.624;4.924;2022-07-06T09:44:09;1.60;;;0.75;;
24547;SDS011;12713;51.624;4.924;2022-07-06T09:46:42;2.00;;;0.57;;
24547;SDS011;12713;51.624;4.924;2022-07-06T09:49:08;6.05;;;0.88;;
24547;SDS011;12713;51.624;4.924;2022-07-06T09:51:38;2.83;;;0.82;;
24547;SDS011;12713;51.624;4.924;2022-07-06T09:54:07;1.10;;;0.40;;
24547;SDS011;12713;51.624;4.924;2022-07-06T09:56:37;1.58;;;0.68;;
24547;SDS011;12713;51.624;4.924;2022-07-06T09:59:17;2.47;;;0.82;;
24547;SDS011;12713;51.624;4.924;2022-07-06T10:01:43;3.15;;;0.57;;
24547;SDS011;12713;51.624;4.924;2022-07-06T10:04:10;1.40;;;0.60;;
24547;SDS011;12713;51.624;4.924;2022-07-06T10:06:40;4.13;;;0.75;;
24547;SDS011;12713;51.624;4.924;2022-07-06T10:09:07;2.20;;;0.70;;
24547;SDS011;12713;51.624;4.924;2022-07-06T10:11:34;1.45;;;0.70;;
24547;SDS011;12713;51.624;4.924;2022-07-06T10:14:03;0.90;;;0.40;;
24547;SDS011;12713;51.624;4.924;2022-07-06T10:16:30;1.35;;;0.52;;
24547;SDS011;12713;51.624;4.924;2022-07-06T10:18:56;2.60;;;0.70;;
24547;SDS011;12713;51.624;4.924;2022-07-06T10:21:23;2.13;;;0.80;;
24547;SDS011;12713;51.624;4.924;2022-07-06T10:23:49;5.25;;;0.60;;
24547;SDS011;12713;51.624;4.924;2022-07-06T10:26:16;2.40;;;0.80;;
24547;SDS011;12713;51.624;4.924;2022-07-06T10:28:43;3.85;;;0.98;;
24547;SDS011;12713;51.624;4.924;2022-07-06T10:31:11;3.17;;;0.50;;
24547;SDS011;12713;51.624;4.924;2022-07-06T10:33:38;2.15;;;0.82;;
24547;SDS011;12713;51.624;4.924;2022-07-06T10:36:11;1.50;;;0.60;;
24547;SDS011;12713;51.624;4.924;2022-07-06T10:38:37;1.35;;;0.68;;
24547;SDS011;12713;51.624;4.924;2022-07-06T10:41:04;2.67;;;0.68;;
24547;SDS011;12713;51.624;4.924;2022-07-06T10:43:52;1.25;;;0.60;;
24547;SDS011;12713;51.624;4.924;2022-07-06T10:46:20;2.35;;;0.70;;
24547;SDS011;12713;51.624;4.924;2022-07-06T10:48:47;2.90;;;0.77;;
24547;SDS011;12713;51.624;4.924;2022-07-06T10:51:26;1.92;;;0.60;;
24547;SDS011;12713;51.624;4.924;2022-07-06T10:54:04;2.38;;;0.90;;
24547;SDS011;12713;51.624;4.924;2022-07-06T10:56:40;4.00;;;0.90;;
24547;SDS011;12713;51.624;4.924;2022-07-06T10:59:11;1.52;;;0.80;;
24547;SDS011;12713;51.624;4.924;2022-07-06T11:01:37;2.45;;;0.68;;
24547;SDS011;12713;51.624;4.924;2022-07-06T11:04:04;2.00;;;0.85;;
24547;SDS011;12713;51.624;4.924;2022-07-06T11:06:37;1.98;;;0.68;;
24547;SDS011;12713;51.624;4.924;2022-07-06T11:09:04;1.85;;;0.68;;
24547;SDS011;12713;51.624;4.924;2022-07-06T11:16:23;0.80;;;0.60;;
24547;SDS011;12713;51.624;4.924;2022-07-06T11:23:58;3.72;;;1.05;;
24547;SDS011;12713;51.624;4.924;2022-07-06T11:26:24;1.27;;;0.57;;
24547;SDS011;12713;51.624;4.924;2022-07-06T11:28:50;1.40;;;0.68;;
24547;SDS011;12713;51.624;4.924;2022-07-06T11:31:17;2.20;;;0.70;;
24547;SDS011;12713;51.624;4.924;2022-07-06T11:33:46;3.63;;;0.75;;
24547;SDS011;12713;51.624;4.924;2022-07-06T11:38:39;1.67;;;0.77;;
24547;SDS011;12713;51.624;4.924;2022-07-06T11:41:05;2.35;;;0.70;;
24547;SDS011;12713;51.624;4.924;2022-07-06T11:43:31;5.03;;;1.48;;
24547;SDS011;12713;51.624;4.924;2022-07-06T11:45:57;3.35;;;0.63;;
24547;SDS011;12713;51.624;4.924;2022-07-06T11:48:23;4.00;;;0.90;;
24547;SDS011;12713;51.624;4.924;2022-07-06T11:50:59;2.25;;;0.80;;
24547;SDS011;12713;51.624;4.924;2022-07-06T11:53:26;2.30;;;0.88;;
24547;SDS011;12713;51.624;4.924;2022-07-06T11:55:52;2.60;;;0.90;;
24547;SDS011;12713;51.624;4.924;2022-07-06T11:58:22;2.78;;;1.63;;
24547;SDS011;12713;51.624;4.924;2022-07-06T12:03:30;1.70;;;0.73;;
24547;SDS011;12713;51.624;4.924;2022-07-06T12:05:57;1.98;;;0.70;;
24547;SDS011;12713;51.624;4.924;2022-07-06T12:08:23;3.30;;;0.88;;
24547;SDS011;12713;51.624;4.924;2022-07-06T12:10:49;2.72;;;1.17;;
24547;SDS011;12713;51.624;4.924;2022-07-06T12:13:15;3.20;;;1.00;;
24547;SDS011;12713;51.624;4.924;2022-07-06T12:15:41;3.00;;;1.00;;
24547;SDS011;12713;51.624;4.924;2022-07-06T12:18:08;1.67;;;1.02;;
24547;SDS011;12713;51.624;4.924;2022-07-06T12:20:33;2.35;;;0.90;;
24547;SDS011;12713;51.624;4.924;2022-07-06T12:23:03;1.73;;;0.73;;
24547;SDS011;12713;51.624;4.924;2022-07-06T12:25:33;2.88;;;0.90;;
24547;SDS011;12713;51.624;4.924;2022-07-06T12:27:59;2.20;;;1.00;;
24547;SDS011;12713;51.624;4.924;2022-07-06T12:30:25;6.28;;;1.02;;
24547;SDS011;12713;51.624;4.924;2022-07-06T12:33:10;3.30;;;0.80;;
24547;SDS011;12713;51.624;4.924;2022-07-06T12:35:36;4.30;;;1.30;;
24547;SDS011;12713;51.624;4.924;2022-07-06T12:38:02;3.60;;;0.90;;
24547;SDS011;12713;51.624;4.924;2022-07-06T12:40:28;5.43;;;0.77;;
24547;SDS011;12713;51.624;4.924;2022-07-06T12:42:54;2.83;;;0.90;;
24547;SDS011;12713;51.624;4.924;2022-07-06T12:45:25;5.00;;;1.67;;
24547;SDS011;12713;51.624;4.924;2022-07-06T12:48:04;3.88;;;1.17;;
24547;SDS011;12713;51.624;4.924;2022-07-06T12:50:34;3.83;;;1.20;;
24547;SDS011;12713;51.624;4.924;2022-07-06T12:53:01;2.20;;;0.93;;
24547;SDS011;12713;51.624;4.924;2022-07-06T12:55:28;4.75;;;1.55;;
24547;SDS011;12713;51.624;4.924;2022-07-06T12:57:55;3.30;;;0.82;;
24547;SDS011;12713;51.624;4.924;2022-07-06T13:00:21;3.40;;;1.00;;
24547;SDS011;12713;51.624;4.924;2022-07-06T13:02:48;4.38;;;0.90;;
24547;SDS011;12713;51.624;4.924;2022-07-06T13:05:21;3.80;;;1.40;;
24547;SDS011;12713;51.624;4.924;2022-07-06T13:07:52;3.67;;;1.00;;
24547;SDS011;12713;51.624;4.924;2022-07-06T13:10:19;3.20;;;1.10;;
24547;SDS011;12713;51.624;4.924;2022-07-06T13:12:45;2.20;;;1.15;;
24547;SDS011;12713;51.624;4.924;2022-07-06T13:15:11;2.63;;;1.00;;
24547;SDS011;12713;51.624;4.924;2022-07-06T13:17:38;2.53;;;1.00;;
24547;SDS011;12713;51.624;4.924;2022-07-06T13:20:04;2.20;;;0.80;;
24547;SDS011;12713;51.624;4.924;2022-07-06T13:22:31;4.00;;;1.25;;
24547;SDS011;12713;51.624;4.924;2022-07-06T13:24:56;3.45;;;1.10;;
24547;SDS011;12713;51.624;4.924;2022-07-06T13:27:22;3.58;;;1.00;;
24547;SDS011;12713;51.624;4.924;2022-07-06T13:29:48;4.35;;;1.00;;
24547;SDS011;12713;51.624;4.924;2022-07-06T13:32:14;3.47;;;0.85;;
24547;SDS011;12713;51.624;4.924;2022-07-06T13:34:40;3.55;;;1.00;;
24547;SDS011;12713;51.624;4.924;2022-07-06T13:37:06;2.35;;;0.82;;
24547;SDS011;12713;51.624;4.924;2022-07-06T13:39:32;2.50;;;1.10;;
24547;SDS011;12713;51.624;4.924;2022-07-06T13:41:59;4.40;;;1.00;;
24547;SDS011;12713;51.624;4.924;2022-07-06T13:44:25;2.60;;;1.00;;
24547;SDS011;12713;51.624;4.924;2022-07-06T13:46:50;2.55;;;1.10;;
24547;SDS011;12713;51.624;4.924;2022-07-06T13:49:16;5.22;;;1.20;;
24547;SDS011;12713;51.624;4.924;2022-07-06T13:51:43;1.98;;;0.95;;
24547;SDS011;12713;51.624;4.924;2022-07-06T13:54:09;2.00;;;1.10;;
24547;SDS011;12713;51.624;4.924;2022-07-06T13:56:36;6.28;;;1.30;;
24547;SDS011;12713;51.624;4.924;2022-07-06T13:59:02;2.28;;;1.00;;
24547;SDS011;12713;51.624;4.924;2022-07-06T14:01:28;4.88;;;1.10;;
24547;SDS011;12713;51.624;4.924;2022-07-06T14:03:54;2.50;;;0.90;;
24547;SDS011;12713;51.624;4.924;2022-07-06T14:06:20;2.75;;;1.20;;
24547;SDS011;12713;51.624;4.924;2022-07-06T14:08:47;3.67;;;1.35;;
24547;SDS011;12713;51.624;4.924;2022-07-06T14:11:13;4.07;;;1.30;;
24547;SDS011;12713;51.624;4.924;2022-07-06T14:13:39;2.70;;;1.10;;
24547;SDS011;12713;51.624;4.924;2022-07-06T14:16:05;1.77;;;1.20;;
24547;SDS011;12713;51.624;4.924;2022-07-06T14:18:31;6.90;;;1.20;;
24547;SDS011;12713;51.624;4.924;2022-07-06T14:20:57;3.65;;;1.02;;
24547;SDS011;12713;51.624;4.924;2022-07-06T14:23:25;4.25;;;0.82;;
24547;SDS011;12713;51.624;4.924;2022-07-06T14:25:51;4.72;;;1.23;;
24547;SDS011;12713;51.624;4.924;2022-07-06T14:28:19;3.10;;;1.65;;
24547;SDS011;12713;51.624;4.924;2022-07-06T14:30:45;5.13;;;1.40;;
24547;SDS011;12713;51.624;4.924;2022-07-06T14:33:12;2.20;;;1.00;;
24547;SDS011;12713;51.624;4.924;2022-07-06T14:35:39;3.65;;;1.20;;
24547;SDS011;12713;51.624;4.924;2022-07-06T14:38:06;4.28;;;1.33;;
24547;SDS011;12713;51.624;4.924;2022-07-06T14:40:32;3.70;;;1.27;;
24547;SDS011;12713;51.624;4.924;2022-07-06T14:42:58;6.45;;;1.58;;
24547;SDS011;12713;51.624;4.924;2022-07-06T14:45:24;3.45;;;1.58;;
24547;SDS011;12713;51.624;4.924;2022-07-06T14:47:50;4.80;;;2.05;;
24547;SDS011;12713;51.624;4.924;2022-07-06T14:50:17;4.35;;;1.50;;
24547;SDS011;12713;51.624;4.924;2022-07-06T14:52:43;4.60;;;1.77;;
24547;SDS011;12713;51.624;4.924;2022-07-06T14:55:09;8.20;;;1.38;;
24547;SDS011;12713;51.624;4.924;2022-07-06T14:57:35;7.38;;;1.52;;
24547;SDS011;12713;51.624;4.924;2022-07-06T15:00:01;8.60;;;1.85;;
24547;SDS011;12713;51.624;4.924;2022-07-06T15:02:27;5.28;;;1.60;;
24547;SDS011;12713;51.624;4.924;2022-07-06T15:04:53;4.82;;;1.63;;
24547;SDS011;12713;51.624;4.924;2022-07-06T15:07:19;6.70;;;1.80;;
24547;SDS011;12713;51.624;4.924;2022-07-06T15:09:45;10.05;;;2.58;;
24547;SDS011;12713;51.624;4.924;2022-07-06T15:12:11;6.63;;;2.78;;
24547;SDS011;12713;51.624;4.924;2022-07-06T15:14:37;9.60;;;2.38;;